Time;durP1;ratioP1;P1;durP2;ratioP2;P2;SDS_P1;SDS_P2;PMS_P1;PMS_P2;Temp;Humidity;BMP_temperature;BMP_pressure;BME280_temperature;BME280_humidity;BME280_pressure;Samples;Min_cycle;Max_cycle;Signal;HPM_P1;HPM_P2
2023/08/29 00:00:17;;;;;;;3.88;2.63;;;;;;;15.85;80.68;100368.06;7399959;19;20006;-66
2023/08/29 00:02:45;;;;;;;4.70;3.35;;;;;;;15.85;80.46;100373.38;7399525;19;20490;-66
2023/08/29 00:05:14;;;;;;;3.83;2.97;;;;;;;15.85;80.89;100366.28;7400063;19;20010;-66
2023/08/29 00:07:51;;;;;;;3.60;3.22;;;;;;;15.83;80.56;100360.19;7400117;19;20435;-66
2023/08/29 00:10:20;;;;;;;3.30;3.00;;;;;;;15.82;80.56;100371.69;7399288;19;20007;-66
2023/08/29 00:12:48;;;;;;;3.42;2.90;;;;;;;15.83;80.88;100377.88;7397391;19;20027;-66
2023/08/29 00:15:23;;;;;;;3.55;3.03;;;;;;;15.83;80.62;100372.56;7397009;19;20097;-66
2023/08/29 00:17:52;;;;;;;3.47;3.15;;;;;;;15.82;81.05;100370.84;7397454;19;20078;-66
2023/08/29 00:20:20;;;;;;;4.03;3.10;;;;;;;15.82;80.92;100368.22;7397353;19;20018;-67
2023/08/29 00:22:51;;;;;;;4.28;3.45;;;;;;;15.82;81.10;100363.75;7398847;19;20070;-66
2023/08/29 00:25:20;;;;;;;3.30;3.00;;;;;;;15.82;81.10;100353.19;7399977;19;20028;-66
2023/08/29 00:27:48;;;;;;;3.55;3.25;;;;;;;15.82;81.09;100360.28;7399456;19;20014;-66
2023/08/29 00:30:17;;;;;;;5.30;3.75;;;;;;;15.81;81.12;100359.41;7398351;19;20073;-66
2023/08/29 00:32:45;;;;;;;5.63;3.40;;;;;;;15.80;80.90;100357.69;7398909;19;20014;-66
2023/08/29 00:35:14;;;;;;;5.78;4.40;;;;;;;15.79;81.14;100353.31;7398879;19;20347;-66
2023/08/29 00:37:42;;;;;;;5.18;3.53;;;;;;;15.77;81.28;100356.03;7398747;19;20023;-66
2023/08/29 00:40:14;;;;;;;3.50;3.20;;;;;;;15.77;81.25;100355.16;7399056;19;20091;-67
2023/08/29 00:42:43;;;;;;;3.80;3.17;;;;;;;15.77;81.34;100363.97;7398354;19;20010;-65
2023/08/29 00:45:12;;;;;;;3.75;3.45;;;;;;;15.76;80.96;100359.63;7398932;19;20070;-65
2023/08/29 00:47:41;;;;;;;3.83;2.92;;;;;;;15.77;81.28;100363.09;7397526;19;20018;-65
2023/08/29 00:50:11;;;;;;;3.60;3.30;;;;;;;15.74;81.51;100353.53;7395959;19;20514;-66
2023/08/29 00:52:39;;;;;;;4.60;3.20;;;;;;;15.78;81.61;100359.53;7398373;19;20082;-66
2023/08/29 00:55:10;;;;;;;3.42;3.13;;;;;;;15.76;81.78;100354.31;7398146;19;20082;-66
2023/08/29 00:57:42;;;;;;;4.07;3.53;;;;;;;15.76;81.80;100343.75;7396444;19;20443;-66
2023/08/29 01:00:12;;;;;;;3.60;3.30;;;;;;;15.76;81.93;100346.41;7396764;19;20027;-66
2023/08/29 01:02:40;;;;;;;4.20;3.80;;;;;;;15.75;82.20;100347.31;7398012;19;20070;-65
2023/08/29 01:05:09;;;;;;;5.88;3.42;;;;;;;15.74;82.32;100357.97;7398224;19;20079;-66
2023/08/29 01:07:39;;;;;;;4.32;3.72;;;;;;;15.74;82.35;100350.03;7396094;19;20014;-66
2023/08/29 01:10:09;;;;;;;4.53;3.30;;;;;;;15.72;82.61;100350.13;7397475;19;20070;-66
2023/08/29 01:12:46;;;;;;;5.22;3.45;;;;;;;15.71;82.78;100351.06;7398028;19;20011;-65
2023/08/29 01:15:21;;;;;;;4.65;3.70;;;;;;;15.69;83.07;100360.00;7397569;19;20023;-66
2023/08/29 01:17:54;;;;;;;4.35;3.50;;;;;;;15.67;83.19;100362.72;7395859;19;20102;-66
2023/08/29 01:20:24;;;;;;;3.92;3.53;;;;;;;15.65;82.90;100361.94;7396272;19;20074;-66
2023/08/29 01:23:06;;;;;;;4.03;3.58;;;;;;;15.63;82.95;100355.84;7397382;19;20024;-66
2023/08/29 01:25:45;;;;;;;5.28;3.70;;;;;;;15.60;83.12;100354.22;7398039;19;20027;-66
2023/08/29 01:28:16;;;;;;;4.68;3.47;;;;;;;15.58;83.25;100353.47;7395668;19;20417;-64
2023/08/29 01:30:46;;;;;;;6.35;3.40;;;;;;;15.57;83.44;100358.78;7396989;19;20074;-65
2023/08/29 01:33:15;;;;;;;5.10;3.70;;;;;;;15.55;83.58;100356.22;7395370;19;20031;-67
2023/08/29 01:35:48;;;;;;;4.22;3.28;;;;;;;15.54;83.44;100356.31;7396869;19;20027;-66
2023/08/29 01:38:17;;;;;;;7.90;4.03;;;;;;;15.52;83.50;100352.88;7396885;19;20010;-65
2023/08/29 01:40:46;;;;;;;7.45;3.63;;;;;;;15.51;83.96;100353.84;7397042;19;20017;-66
2023/08/29 01:43:17;;;;;;;3.97;3.67;;;;;;;15.47;83.78;100346.03;7396575;19;20074;-67
2023/08/29 01:45:45;;;;;;;3.45;3.15;;;;;;;15.46;84.07;100340.81;7400080;19;20014;-66
2023/08/29 01:48:14;;;;;;;4.13;3.55;;;;;;;15.45;83.98;100337.31;7396259;19;20027;-65
2023/08/29 01:50:45;;;;;;;4.03;3.63;;;;;;;15.45;83.93;100325.91;7395643;19;20423;-66
2023/08/29 01:53:14;;;;;;;6.72;4.00;;;;;;;15.42;84.18;100332.19;7395773;19;20089;-66
2023/08/29 01:55:43;;;;;;;4.22;3.30;;;;;;;15.42;84.19;100324.25;7396614;19;20014;-66
2023/08/29 01:58:12;;;;;;;3.75;3.45;;;;;;;15.42;84.18;100331.34;7396073;19;20023;-66
2023/08/29 02:00:44;;;;;;;3.85;3.38;;;;;;;15.41;84.10;100337.56;7393868;19;20010;-66
2023/08/29 02:03:13;;;;;;;5.32;3.78;;;;;;;15.38;84.29;100338.56;7396119;19;20102;-66
2023/08/29 02:05:42;;;;;;;4.28;3.80;;;;;;;15.40;84.07;100341.97;7396306;19;20006;-66
2023/08/29 02:08:11;;;;;;;4.20;3.22;;;;;;;15.39;84.14;100342.91;7396135;19;20090;-66
2023/08/29 02:10:39;;;;;;;4.63;3.70;;;;;;;15.38;84.53;100338.56;7395557;19;20014;-66
2023/08/29 02:13:09;;;;;;;4.53;3.67;;;;;;;15.38;84.33;100337.69;7395524;19;20018;-66
2023/08/29 02:15:38;;;;;;;3.75;3.38;;;;;;;15.36;84.26;100337.75;7395585;19;20366;-65
2023/08/29 02:18:09;;;;;;;5.35;3.72;;;;;;;15.36;84.40;100344.84;7394230;19;20031;-66
2023/08/29 02:20:39;;;;;;;5.25;4.03;;;;;;;15.33;84.36;100332.63;7395527;19;20007;-66
2023/08/29 02:23:08;;;;;;;5.07;3.47;;;;;;;15.33;84.45;100332.63;7395218;19;20074;-66
2023/08/29 02:25:37;;;;;;;6.32;3.95;;;;;;;15.31;84.23;100327.41;7395685;19;20018;-64
2023/08/29 02:28:06;;;;;;;5.00;3.95;;;;;;;15.32;84.42;100325.63;7395422;19;20023;-66
2023/08/29 02:30:37;;;;;;;4.72;4.32;;;;;;;15.30;84.46;100328.34;7393338;19;20010;-66
2023/08/29 02:33:08;;;;;;;4.60;4.20;;;;;;;15.28;84.04;100319.63;7393741;19;20014;-66
2023/08/29 02:35:37;;;;;;;4.65;4.25;;;;;;;15.27;83.94;100312.63;7394967;19;20010;-65
2023/08/29 02:38:06;;;;;;;4.63;4.22;;;;;;;15.26;84.16;100312.72;7395001;19;20078;-66
2023/08/29 02:40:35;;;;;;;4.80;4.40;;;;;;;15.26;84.09;100315.34;7395595;19;20074;-66
2023/08/29 02:43:03;;;;;;;4.45;4.05;;;;;;;15.25;83.96;100311.00;7394464;19;20031;-66
2023/08/29 02:45:32;;;;;;;4.60;4.13;;;;;;;15.27;84.21;100306.50;7395134;19;20074;-66
2023/08/29 02:48:00;;;;;;;4.38;4.07;;;;;;;15.26;84.28;100303.00;7394674;19;20379;-66
2023/08/29 02:50:31;;;;;;;4.72;4.32;;;;;;;15.28;84.21;100303.78;7394686;19;20078;-66
2023/08/29 02:53:00;;;;;;;5.35;4.05;;;;;;;15.30;84.40;100303.69;7394596;19;20027;-66
2023/08/29 02:55:28;;;;;;;4.90;4.50;;;;;;;15.30;84.31;100301.94;7392842;19;20074;-66
2023/08/29 02:57:57;;;;;;;5.00;4.50;;;;;;;15.29;84.21;100300.22;7394372;19;20024;-66
2023/08/29 03:00:25;;;;;;;4.93;4.40;;;;;;;15.30;83.91;100293.13;7394320;19;20077;-66
2023/08/29 03:02:54;;;;;;;6.57;4.57;;;;;;;15.31;84.21;100294.84;7392669;19;20028;-66
2023/08/29 03:05:22;;;;;;;4.65;4.25;;;;;;;15.30;84.37;100282.56;7394653;19;20019;-66
2023/08/29 03:07:55;;;;;;;5.60;4.47;;;;;;;15.22;84.17;100268.88;7394548;19;20023;-66
2023/08/29 03:10:23;;;;;;;5.60;4.97;;;;;;;15.30;84.42;100278.16;7395033;19;20010;-66
2023/08/29 03:12:53;;;;;;;5.75;4.80;;;;;;;15.29;84.13;100283.47;7400067;19;20095;-66
2023/08/29 03:15:21;;;;;;;4.95;4.55;;;;;;;15.25;84.36;100276.66;7398653;19;20477;-66
2023/08/29 03:17:59;;;;;;;5.80;4.57;;;;;;;15.21;84.25;100278.56;7398655;19;20031;-66
2023/08/29 03:20:27;;;;;;;5.57;4.45;;;;;;;15.18;84.63;100267.28;7402056;19;20018;-67
2023/08/29 03:22:59;;;;;;;6.00;4.78;;;;;;;15.13;84.87;100263.09;7400668;19;20017;-66
2023/08/29 03:25:27;;;;;;;5.28;4.72;;;;;;;15.08;84.99;100251.06;7402442;19;20118;-67
2023/08/29 03:27:56;;;;;;;4.63;4.18;;;;;;;15.01;85.25;100253.13;7398853;19;20006;-67
2023/08/29 03:30:24;;;;;;;4.78;4.35;;;;;;;14.98;85.31;100243.56;7401000;19;20010;-67
2023/08/29 03:32:53;;;;;;;5.30;4.90;;;;;;;14.94;85.61;100242.00;7398415;19;20087;-67
2023/08/29 03:35:23;;;;;;;5.28;4.78;;;;;;;14.92;85.57;100229.78;7400846;19;20380;-67
2023/08/29 03:37:51;;;;;;;5.63;4.82;;;;;;;14.89;85.75;100230.81;7400337;19;20528;-67
2023/08/29 03:40:22;;;;;;;5.22;4.63;;;;;;;14.86;85.98;100233.59;7400456;19;20014;-67
2023/08/29 03:42:51;;;;;;;5.95;5.05;;;;;;;14.85;86.02;100231.00;7400616;19;20011;-67
2023/08/29 03:45:20;;;;;;;5.38;4.97;;;;;;;14.82;85.78;100226.72;7399717;19;20380;-67
2023/08/29 03:47:48;;;;;;;5.50;4.53;;;;;;;14.79;85.85;100225.09;7397423;19;20007;-67
2023/08/29 03:50:17;;;;;;;5.50;5.00;;;;;;;14.79;86.09;100218.97;7400849;19;20087;-67
2023/08/29 03:52:45;;;;;;;5.75;5.25;;;;;;;14.77;86.13;100218.19;7397967;19;20023;-66
2023/08/29 03:55:14;;;;;;;8.32;4.60;;;;;;;14.74;86.06;100215.69;7400539;19;20035;-67
2023/08/29 03:57:45;;;;;;;5.70;5.10;;;;;;;14.71;86.09;100216.69;7399749;19;20482;-67
2023/08/29 04:00:15;;;;;;;5.95;5.45;;;;;;;14.71;86.27;100226.38;7397797;19;20024;-66
2023/08/29 04:02:44;;;;;;;5.72;5.20;;;;;;;14.71;86.52;100224.63;7398988;19;20027;-67
2023/08/29 04:05:14;;;;;;;5.78;5.10;;;;;;;14.71;86.66;100207.91;7399356;19;20506;-67
2023/08/29 04:07:44;;;;;;;5.38;4.88;;;;;;;14.70;86.56;100214.09;7400295;19;20373;-66
2023/08/29 04:10:15;;;;;;;5.70;5.20;;;;;;;14.72;86.51;100217.53;7399196;19;20025;-66
2023/08/29 04:12:46;;;;;;;5.53;5.03;;;;;;;14.72;86.66;100218.41;7397507;19;20355;-66
2023/08/29 04:15:14;;;;;;;7.22;4.65;;;;;;;14.72;86.86;100218.41;7400056;19;20015;-65
2023/08/29 04:17:43;;;;;;;7.28;6.40;;;;;;;14.73;86.50;100213.97;7398100;19;20031;-65
2023/08/29 04:20:13;;;;;;;6.25;5.28;;;;;;;14.73;86.91;100224.53;7396753;19;20556;-66
2023/08/29 04:22:41;;;;;;;6.25;5.57;;;;;;;14.72;86.71;100226.34;7397300;19;20073;-65
2023/08/29 04:25:11;;;;;;;6.80;6.15;;;;;;;14.72;86.72;100228.09;7399639;19;20018;-66
2023/08/29 04:27:39;;;;;;;9.82;6.80;;;;;;;14.73;86.75;100235.94;7398793;19;20015;-65
2023/08/29 04:30:11;;;;;;;5.55;4.90;;;;;;;14.74;86.95;100231.53;7398936;19;20014;-66
2023/08/29 04:32:40;;;;;;;7.47;5.90;;;;;;;14.75;87.00;100247.31;7396470;19;20505;-65
2023/08/29 04:35:10;;;;;;;5.50;5.00;;;;;;;14.75;86.76;100239.38;7398782;19;20082;-65
2023/08/29 04:37:39;;;;;;;5.90;5.30;;;;;;;14.77;86.87;100236.66;7396459;19;20359;-66
2023/08/29 04:40:10;;;;;;;7.22;4.82;;;;;;;14.77;86.84;100241.94;7397966;19;20104;-66
2023/08/29 04:42:40;;;;;;;8.43;5.40;;;;;;;14.79;87.01;100240.94;7398825;19;20070;-66
2023/08/29 04:45:12;;;;;;;7.30;5.25;;;;;;;14.79;86.84;100243.56;7396007;19;20481;-66
2023/08/29 04:47:41;;;;;;;5.97;5.10;;;;;;;14.79;86.87;100235.66;7398062;19;20390;-66
2023/08/29 04:50:10;;;;;;;6.60;5.13;;;;;;;14.78;86.90;100233.09;7396345;19;20014;-66
2023/08/29 04:52:39;;;;;;;5.45;4.95;;;;;;;14.78;86.64;100235.72;7396821;19;20014;-68
2023/08/29 04:55:13;;;;;;;5.43;5.00;;;;;;;14.79;86.86;100234.81;7397689;19;20006;-65
2023/08/29 04:57:41;;;;;;;5.45;4.95;;;;;;;14.81;86.89;100241.72;7397694;19;20014;-67
2023/08/29 05:00:14;;;;;;;5.07;4.68;;;;;;;14.81;86.88;100241.72;7394789;19;20070;-67
2023/08/29 05:02:43;;;;;;;6.90;5.63;;;;;;;14.83;86.98;100244.28;7396144;19;20025;-66
2023/08/29 05:05:11;;;;;;;6.75;5.93;;;;;;;14.81;87.11;100239.09;7394177;19;20382;-66
2023/08/29 05:07:40;;;;;;;5.82;5.32;;;;;;;14.81;87.12;100244.38;7396644;19;20074;-66
2023/08/29 05:10:09;;;;;;;5.68;5.18;;;;;;;14.80;87.00;100237.38;7394700;19;20028;-65
2023/08/29 05:12:38;;;;;;;5.60;5.10;;;;;;;14.80;87.21;100234.72;7394131;19;20067;-66
2023/08/29 05:15:08;;;;;;;7.78;7.07;;;;;;;14.80;87.34;100236.53;7396639;19;20010;-69
2023/08/29 05:17:39;;;;;;;7.20;6.60;;;;;;;14.82;87.62;100240.81;7396586;19;20081;-66
2023/08/29 05:20:09;;;;;;;5.43;4.93;;;;;;;14.82;87.53;100240.81;7396272;19;20015;-66
2023/08/29 05:22:38;;;;;;;7.85;5.68;;;;;;;14.88;87.66;100244.09;7395441;19;20017;-68
2023/08/29 05:25:08;;;;;;;6.10;5.55;;;;;;;14.89;87.81;100229.97;7396688;19;20021;-67
2023/08/29 05:27:37;;;;;;;6.82;5.70;;;;;;;14.90;87.35;100223.72;7396716;19;20014;-66
2023/08/29 05:30:07;;;;;;;7.13;5.68;;;;;;;14.89;87.65;100230.81;7394787;19;20021;-66
2023/08/29 05:32:38;;;;;;;6.63;5.53;;;;;;;14.88;88.13;100242.28;7395243;19;20018;-66
2023/08/29 05:35:08;;;;;;;5.88;4.95;;;;;;;14.82;88.06;100246.09;7396463;19;20032;-68
2023/08/29 05:37:36;;;;;;;7.32;4.90;;;;;;;14.74;88.56;100258.78;7395922;19;20028;-66
2023/08/29 05:40:06;;;;;;;7.95;5.15;;;;;;;14.69;88.90;100259.94;7395792;19;20083;-66
2023/08/29 05:42:34;;;;;;;7.00;5.68;;;;;;;14.65;89.23;100248.66;7393611;19;20516;-65
2023/08/29 05:45:03;;;;;;;6.57;5.97;;;;;;;14.62;89.24;100249.63;7395459;19;20525;-66
2023/08/29 05:47:31;;;;;;;5.75;5.20;;;;;;;14.63;90.46;100237.28;7395984;19;20019;-66
2023/08/29 05:50:03;;;;;;;7.03;5.72;;;;;;;14.61;90.41;100236.50;7393817;19;20546;-66
2023/08/29 05:52:31;;;;;;;5.85;5.35;;;;;;;14.60;90.01;100230.34;7394085;19;20369;-65
2023/08/29 05:55:00;;;;;;;6.43;5.38;;;;;;;14.62;90.18;100235.56;7394136;19;20007;-66
2023/08/29 05:57:28;;;;;;;5.82;5.05;;;;;;;14.62;90.10;100238.19;7395530;19;20171;-66
2023/08/29 05:59:57;;;;;;;6.65;4.68;;;;;;;14.64;90.28;100239.00;7393823;19;20512;-65
2023/08/29 06:02:26;;;;;;;7.50;4.60;;;;;;;14.67;90.15;100230.94;7395666;19;20082;-66
2023/08/29 06:04:54;;;;;;;7.57;4.60;;;;;;;14.70;89.98;100230.81;7395326;19;20081;-66
2023/08/29 06:07:26;;;;;;;4.40;4.10;;;;;;;14.73;89.80;100230.66;7394940;19;20504;-66
2023/08/29 06:09:54;;;;;;;4.55;3.85;;;;;;;14.75;89.93;100236.75;7394348;19;20028;-66
2023/08/29 06:12:22;;;;;;;4.18;3.83;;;;;;;14.77;89.59;100236.66;7395206;19;20078;-67
2023/08/29 06:14:51;;;;;;;5.97;4.03;;;;;;;14.80;89.79;100240.00;7394398;19;20018;-66
2023/08/29 06:17:19;;;;;;;5.03;3.47;;;;;;;14.81;89.48;100241.72;7394953;19;20018;-67
2023/08/29 06:19:48;;;;;;;4.95;4.18;;;;;;;14.82;89.46;100237.28;7395281;19;20007;-66
2023/08/29 06:22:16;;;;;;;5.63;4.25;;;;;;;14.86;89.52;100240.66;7395694;19;20015;-67
2023/08/29 06:24:47;;;;;;;5.20;4.03;;;;;;;14.88;89.59;100244.94;7394097;19;20014;-66
2023/08/29 06:27:16;;;;;;;5.10;3.88;;;;;;;14.92;89.34;100253.56;7395651;19;20062;-67
2023/08/29 06:29:45;;;;;;;5.20;4.68;;;;;;;14.93;89.62;100273.78;7393239;19;20128;-67
2023/08/29 06:32:14;;;;;;;13.75;9.90;;;;;;;14.95;89.61;100282.47;7393378;19;20015;-68
2023/08/29 06:34:42;;;;;;;4.90;3.95;;;;;;;14.97;89.50;100284.13;7393441;19;20019;-68
2023/08/29 06:37:11;;;;;;;4.13;3.70;;;;;;;15.00;89.51;100296.34;7395037;19;20510;-66
2023/08/29 06:39:39;;;;;;;4.22;3.83;;;;;;;15.02;89.24;100298.91;7393150;19;20014;-66
2023/08/29 06:42:10;;;;;;;4.30;3.90;;;;;;;15.04;89.31;100302.31;7393781;19;20014;-65
2023/08/29 06:44:39;;;;;;;4.82;3.80;;;;;;;15.06;89.06;100303.94;7392432;19;20016;-66
2023/08/29 06:47:08;;;;;;;6.85;5.60;;;;;;;15.10;89.45;100308.19;7398476;19;20506;-66
2023/08/29 06:49:36;;;;;;;8.32;5.88;;;;;;;15.15;89.22;100314.09;7402284;19;20020;-66
2023/08/29 06:52:05;;;;;;;5.10;4.60;;;;;;;15.19;88.92;100309.53;7400899;19;20023;-66
2023/08/29 06:54:35;;;;;;;4.38;3.97;;;;;;;15.25;88.89;100316.28;7399462;19;20014;-66
2023/08/29 06:57:04;;;;;;;4.20;3.80;;;;;;;15.28;88.57;100317.00;7402621;19;20031;-66
2023/08/29 06:59:35;;;;;;;5.70;4.63;;;;;;;15.29;88.65;100316.06;7403415;19;20037;-66
2023/08/29 07:02:03;;;;;;;4.43;4.03;;;;;;;15.30;88.54;100315.16;7402282;19;20031;-66
2023/08/29 07:04:32;;;;;;;5.57;4.10;;;;;;;15.35;88.49;100324.63;7399269;19;20086;-66
2023/08/29 07:07:01;;;;;;;6.15;4.40;;;;;;;15.38;88.45;100321.81;7401482;19;20361;-66
2023/08/29 07:09:30;;;;;;;4.85;4.05;;;;;;;15.42;88.08;100324.25;7401032;19;20494;-67
2023/08/29 07:11:59;;;;;;;7.13;4.45;;;;;;;15.45;88.12;100320.59;7400315;19;20385;-66
2023/08/29 07:14:28;;;;;;;4.88;4.47;;;;;;;15.48;88.10;100325.75;7399227;19;20007;-66
2023/08/29 07:16:59;;;;;;;5.45;4.90;;;;;;;15.52;87.97;100324.66;7400954;19;20031;-66
2023/08/29 07:19:28;;;;;;;4.45;4.05;;;;;;;15.53;87.73;100325.50;7401467;19;20007;-66
2023/08/29 07:21:57;;;;;;;7.07;4.50;;;;;;;15.54;87.71;100317.50;7401135;19;20015;-67
2023/08/29 07:24:25;;;;;;;7.22;4.57;;;;;;;15.57;87.83;100319.13;7398160;19;20340;-65
2023/08/29 07:26:54;;;;;;;5.32;4.78;;;;;;;15.57;87.81;100309.44;7398257;19;20087;-66
2023/08/29 07:29:22;;;;;;;5.63;4.72;;;;;;;15.59;87.41;100312.00;7400677;19;20019;-68
2023/08/29 07:31:51;;;;;;;5.97;5.28;;;;;;;15.60;87.61;100319.00;7398101;19;20028;-68
2023/08/29 07:34:22;;;;;;;6.63;5.55;;;;;;;15.59;87.80;100331.34;7399224;19;20011;-70
2023/08/29 07:36:50;;;;;;;5.38;4.88;;;;;;;15.60;87.64;100340.16;7400788;19;20023;-69
2023/08/29 07:39:19;;;;;;;5.95;5.28;;;;;;;15.60;87.46;100340.16;7399757;19;20376;-69
2023/08/29 07:41:47;;;;;;;6.13;4.78;;;;;;;15.60;87.46;100332.22;7400161;19;20014;-69
2023/08/29 07:44:16;;;;;;;7.22;5.68;;;;;;;15.62;87.61;100340.94;7397423;19;20373;-68
2023/08/29 07:46:44;;;;;;;6.32;5.70;;;;;;;15.61;87.66;100345.34;7400070;19;20041;-68
2023/08/29 07:49:14;;;;;;;6.13;5.53;;;;;;;15.60;87.78;100343.63;7398979;19;20416;-69
2023/08/29 07:51:45;;;;;;;6.03;5.50;;;;;;;15.62;88.26;100343.59;7400008;19;20010;-68
2023/08/29 07:54:13;;;;;;;6.15;5.60;;;;;;;15.61;88.19;100345.34;7396504;19;20490;-69
2023/08/29 07:56:42;;;;;;;5.88;5.15;;;;;;;15.59;88.34;100343.72;7399341;19;20014;-68
2023/08/29 07:59:10;;;;;;;5.70;5.25;;;;;;;15.60;88.36;100342.78;7399930;19;20006;-68
2023/08/29 08:01:40;;;;;;;6.53;5.25;;;;;;;15.59;88.55;100341.91;7401125;19;20097;-69
2023/08/29 08:04:09;;;;;;;7.10;5.85;;;;;;;15.62;88.73;100344.44;7397991;19;20018;-69
2023/08/29 08:06:37;;;;;;;6.30;5.70;;;;;;;15.63;88.77;100343.50;7399281;19;20019;-69
2023/08/29 08:09:09;;;;;;;7.03;6.43;;;;;;;15.65;88.57;100340.78;7397917;19;20011;-69
2023/08/29 08:11:37;;;;;;;8.77;7.40;;;;;;;15.67;88.64;100335.41;7397551;19;20022;-67
2023/08/29 08:14:05;;;;;;;8.65;7.85;;;;;;;15.69;89.09;100339.69;7397003;19;20074;-68
2023/08/29 08:16:34;;;;;;;9.77;7.93;;;;;;;15.70;88.97;100336.13;7397658;19;20018;-69
2023/08/29 08:19:04;;;;;;;8.25;7.60;;;;;;;15.74;89.10;100336.81;7396726;19;20085;-68
2023/08/29 08:21:32;;;;;;;9.15;8.35;;;;;;;15.78;89.15;100327.78;7398367;19;20011;-68
2023/08/29 08:24:00;;;;;;;9.05;7.75;;;;;;;15.83;89.13;100330.25;7396952;19;20035;-67
2023/08/29 08:26:32;;;;;;;9.55;7.97;;;;;;;15.85;89.11;100328.41;7399235;19;20030;-68
2023/08/29 08:29:00;;;;;;;8.98;8.18;;;;;;;15.83;89.14;100332.91;7398202;19;20066;-68
2023/08/29 08:31:29;;;;;;;6.90;5.93;;;;;;;15.77;88.79;100334.00;7395783;19;20066;-67
2023/08/29 08:33:58;;;;;;;9.27;8.15;;;;;;;15.75;88.70;100339.38;7396628;19;20027;-68
2023/08/29 08:36:28;;;;;;;8.00;7.28;;;;;;;15.74;88.96;100329.72;7398713;19;20011;-68
2023/08/29 08:38:56;;;;;;;9.15;8.23;;;;;;;15.75;89.35;100320.88;7398572;19;20035;-68
2023/08/29 08:41:27;;;;;;;8.35;7.57;;;;;;;15.80;89.83;100318.00;7399699;19;20070;-69
2023/08/29 08:44:03;;;;;;;9.07;8.18;;;;;;;15.86;89.70;100322.16;7397688;19;20070;-69
2023/08/29 08:46:31;;;;;;;8.70;7.95;;;;;;;15.90;89.45;100318.44;7399225;19;20011;-69
2023/08/29 08:49:01;;;;;;;8.30;7.38;;;;;;;15.94;89.20;100312.06;7398731;19;20041;-69
2023/08/29 08:51:30;;;;;;;9.07;8.27;;;;;;;16.03;89.11;100310.72;7398404;19;20027;-69
2023/08/29 08:53:58;;;;;;;9.32;8.43;;;;;;;16.08;88.84;100314.81;7395445;19;20019;-68
2023/08/29 08:56:27;;;;;;;10.43;8.18;;;;;;;16.15;88.52;100309.22;7398233;19;20086;-69
2023/08/29 08:58:58;;;;;;;9.30;8.40;;;;;;;16.17;87.89;100313.50;7397816;19;20086;-69
2023/08/29 09:01:27;;;;;;;9.75;8.75;;;;;;;16.21;87.74;100312.38;7397522;19;20037;-69
2023/08/29 09:03:56;;;;;;;8.48;7.78;;;;;;;16.28;87.73;100319.09;7395381;19;20014;-69
2023/08/29 09:06:24;;;;;;;9.38;8.48;;;;;;;16.34;87.31;100312.63;7397472;19;20074;-68
2023/08/29 09:08:52;;;;;;;8.30;7.50;;;;;;;16.39;86.99;100315.88;7395641;19;20514;-69
2023/08/29 09:11:21;;;;;;;8.45;7.63;;;;;;;16.39;86.07;100313.25;7394899;19;20023;-69
2023/08/29 09:13:50;;;;;;;8.73;7.68;;;;;;;16.39;85.99;100312.38;7395797;19;20090;-69
2023/08/29 09:16:28;;;;;;;8.98;8.07;;;;;;;16.39;85.86;100315.00;7396418;19;20446;-69
2023/08/29 09:18:57;;;;;;;8.30;7.50;;;;;;;16.40;85.69;100320.25;7395553;19;20030;-69
2023/08/29 09:21:27;;;;;;;8.55;7.85;;;;;;;16.42;85.67;100313.06;7397171;19;20028;-68
2023/08/29 09:23:56;;;;;;;8.70;7.90;;;;;;;16.48;85.38;100324.25;7396166;19;20494;-67
2023/08/29 09:26:24;;;;;;;9.27;8.32;;;;;;;16.50;85.09;100319.75;7395334;19;20014;-67
2023/08/29 09:28:53;;;;;;;9.32;8.45;;;;;;;16.52;84.45;100324.03;7396479;19;20477;-67
2023/08/29 09:31:24;;;;;;;8.68;7.78;;;;;;;16.51;84.21;100321.47;7394502;19;20018;-68
2023/08/29 09:33:52;;;;;;;8.23;7.43;;;;;;;16.49;84.33;100313.63;7395160;19;20034;-67
2023/08/29 09:36:23;;;;;;;7.50;6.80;;;;;;;16.48;84.16;100319.84;7395928;19;20233;-67
2023/08/29 09:38:52;;;;;;;7.70;6.68;;;;;;;16.48;84.30;100319.84;7394974;19;20491;-66
2023/08/29 09:41:20;;;;;;;7.35;6.75;;;;;;;16.49;84.17;100318.91;7395263;19;20006;-67
2023/08/29 09:43:50;;;;;;;7.53;6.65;;;;;;;16.50;83.95;100317.09;7395022;19;20018;-67
2023/08/29 09:46:28;;;;;;;11.38;7.72;;;;;;;16.53;84.02;100306.34;7393391;19;20078;-67
2023/08/29 09:48:57;;;;;;;8.20;6.97;;;;;;;16.58;84.13;100310.47;7394379;19;20033;-67
2023/08/29 09:51:27;;;;;;;7.57;6.75;;;;;;;16.63;83.69;100307.56;7396209;19;20006;-66
2023/08/29 09:53:59;;;;;;;8.23;6.32;;;;;;;16.67;83.09;100298.50;7394042;19;20007;-68
2023/08/29 09:56:30;;;;;;;8.85;6.72;;;;;;;16.70;82.69;100310.75;7395795;19;20030;-67
2023/08/29 09:59:02;;;;;;;7.43;6.72;;;;;;;16.70;82.08;100310.75;7394609;19;20077;-68
2023/08/29 10:01:33;;;;;;;11.10;9.95;;;;;;;16.72;82.00;100315.00;7395972;19;20016;-67
2023/08/29 10:04:08;;;;;;;8.70;7.90;;;;;;;16.70;81.59;100318.69;7394329;19;20105;-69
2023/08/29 10:06:39;;;;;;;6.88;6.28;;;;;;;16.75;81.54;100338.66;7394375;19;20466;-67
2023/08/29 10:09:08;;;;;;;8.60;6.63;;;;;;;16.77;81.10;100326.22;7396328;19;20032;-68
2023/08/29 10:11:38;;;;;;;8.02;5.97;;;;;;;16.82;80.99;100320.66;7395231;19;20007;-67
2023/08/29 10:14:08;;;;;;;6.28;5.65;;;;;;;16.81;80.62;100308.34;7393984;19;20489;-67
2023/08/29 10:16:40;;;;;;;5.93;5.32;;;;;;;16.80;80.32;100311.94;7395831;19;20027;-69
2023/08/29 10:19:22;;;;;;;7.63;6.50;;;;;;;16.77;80.05;100312.97;7392636;19;20481;-67
2023/08/29 10:21:54;;;;;;;6.63;5.80;;;;;;;16.80;80.27;100311.09;7391778;19;20007;-67
2023/08/29 10:24:24;;;;;;;7.97;5.15;;;;;;;16.82;80.41;100301.25;7392915;19;20011;-67
2023/08/29 10:26:53;;;;;;;5.68;5.18;;;;;;;16.85;80.01;100290.50;7392383;19;20022;-68
2023/08/29 10:29:22;;;;;;;6.15;5.05;;;;;;;16.91;80.09;100295.50;7394625;19;20015;-67
2023/08/29 10:31:54;;;;;;;7.93;5.28;;;;;;;16.97;79.91;100299.59;7394884;19;20090;-67
2023/08/29 10:34:24;;;;;;;4.43;3.90;;;;;;;17.02;78.57;100295.75;7392359;19;20078;-67
2023/08/29 10:36:53;;;;;;;4.50;3.55;;;;;;;17.08;78.23;100294.53;7392922;19;20015;-67
2023/08/29 10:39:22;;;;;;;7.00;5.25;;;;;;;17.15;77.37;100292.38;7393796;19;20113;-68
2023/08/29 10:41:54;;;;;;;4.80;3.83;;;;;;;17.20;77.14;100296.50;7394048;19;20018;-68
2023/08/29 10:44:43;;;;;;;3.38;3.08;;;;;;;17.26;76.05;100305.91;7392781;19;20018;-68
2023/08/29 10:47:26;;;;;;;5.28;3.90;;;;;;;17.25;75.71;100307.69;7393258;19;20487;-67
2023/08/29 10:50:02;;;;;;;4.15;3.63;;;;;;;17.24;75.59;100294.53;7394252;19;20115;-66
2023/08/29 10:52:39;;;;;;;3.60;3.30;;;;;;;17.25;75.72;100293.59;7392985;19;20477;-66
2023/08/29 10:55:21;;;;;;;4.43;3.17;;;;;;;17.28;75.77;100301.38;7391506;19;20014;-66
2023/08/29 10:57:51;;;;;;;3.40;2.42;;;;;;;17.31;75.82;100295.03;7392328;19;20066;-67
2023/08/29 11:00:35;;;;;;;4.72;3.55;;;;;;;17.32;75.65;100289.63;7393446;19;20011;-66
2023/08/29 11:03:07;;;;;;;7.47;3.05;;;;;;;17.36;75.45;100285.91;7392672;19;20473;-66
2023/08/29 11:05:40;;;;;;;3.63;2.65;;;;;;;17.40;75.09;100274.16;7393600;19;20372;-66
2023/08/29 11:08:22;;;;;;;2.78;2.58;;;;;;;17.45;74.74;100273.03;7392941;19;20074;-66
2023/08/29 11:11:19;;;;;;;3.30;3.00;;;;;;;17.53;74.81;100268.16;7392950;19;20021;-66
2023/08/29 11:13:58;;;;;;;4.30;3.50;;;;;;;17.60;74.63;100272.13;7389718;19;20066;-66
2023/08/29 11:16:27;;;;;;;3.97;2.95;;;;;;;17.60;74.26;100277.44;7393487;19;20014;-66
2023/08/29 11:19:20;;;;;;;4.50;3.50;;;;;;;17.60;74.11;100269.47;7391332;19;20018;-67
2023/08/29 11:21:50;;;;;;;4.38;3.97;;;;;;;17.61;73.78;100257.09;7392435;19;20010;-67
2023/08/29 11:24:20;;;;;;;3.85;3.50;;;;;;;17.56;74.04;100266.16;7390813;19;20027;-67
2023/08/29 11:26:49;;;;;;;6.47;3.75;;;;;;;17.48;74.09;100257.81;7389850;19;20011;-66
2023/08/29 11:29:18;;;;;;;6.30;3.80;;;;;;;17.42;74.67;100253.69;7392137;19;20014;-67
2023/08/29 11:31:47;;;;;;;4.75;3.50;;;;;;;17.35;75.55;100246.19;7392023;19;20029;-67
2023/08/29 11:34:20;;;;;;;4.15;3.65;;;;;;;17.26;76.25;100244.91;7396667;19;20494;-68
2023/08/29 11:36:50;;;;;;;5.10;4.22;;;;;;;17.23;76.73;100245.94;7400711;19;20017;-66